createdAt,value
2022-11-27T00:00:46.467Z,8.25
2022-11-27T00:03:33.430Z,8.17
2022-11-27T00:06:24.377Z,8.13
2022-11-27T00:09:15.748Z,8.12
2022-11-27T00:12:03.062Z,8.10
2022-11-27T00:14:54.649Z,8.19
2022-11-27T00:17:42.777Z,8.17
2022-11-27T00:20:30.091Z,8.15
2022-11-27T00:23:16.907Z,8.19
2022-11-27T00:26:07.177Z,8.16
2022-11-27T00:28:54.257Z,8.10
2022-11-27T00:31:41.571Z,8.05
2022-11-27T00:34:28.348Z,8.03
2022-11-27T00:37:15.786Z,7.96
2022-11-27T00:40:02.430Z,7.90
2022-11-27T00:42:50.882Z,7.88
2022-11-27T00:45:37.682Z,7.88
2022-11-27T00:48:24.750Z,7.88
2022-11-27T00:51:14.440Z,7.91
2022-11-27T00:54:02.059Z,7.92
2022-11-27T00:56:48.963Z,7.98
2022-11-27T00:59:37.702Z,7.94
2022-11-27T01:02:24.651Z,7.88
2022-11-27T01:05:11.987Z,7.83
2022-11-27T01:07:58.931Z,7.79
2022-11-27T01:10:54.556Z,7.75
2022-11-27T01:13:42.935Z,7.71
2022-11-27T01:16:33.056Z,7.71
2022-11-27T01:19:19.969Z,7.66
2022-11-27T01:22:07.273Z,7.66
2022-11-27T01:24:54.379Z,7.66
2022-11-27T01:27:41.787Z,7.63
2022-11-27T01:30:28.927Z,7.62
2022-11-27T01:33:18.167Z,7.60
2022-11-27T01:36:07.733Z,7.58
2022-11-27T01:38:55.486Z,7.55
2022-11-27T01:41:43.120Z,7.55
2022-11-27T01:44:51.162Z,7.44
2022-11-27T01:47:44.710Z,7.45
2022-11-27T01:50:38.840Z,7.45
2022-11-27T01:53:26.300Z,7.49
2022-11-27T01:56:14.328Z,7.50
2022-11-27T01:59:02.575Z,7.51
2022-11-27T02:01:50.004Z,7.49
2022-11-27T02:04:37.128Z,7.48
2022-11-27T02:07:26.147Z,7.52
2022-11-27T02:10:14.927Z,7.55
2022-11-27T02:13:06.763Z,7.57
2022-11-27T02:16:01.995Z,7.53
2022-11-27T02:18:57.387Z,7.56
2022-11-27T02:21:48.308Z,7.56
2022-11-27T02:24:56.402Z,7.46
2022-11-27T02:28:11.261Z,7.48
2022-11-27T02:31:07.092Z,7.48
2022-11-27T02:34:00.443Z,7.46
2022-11-27T02:36:54.416Z,7.45
2022-11-27T02:39:49.794Z,7.42
2022-11-27T02:42:40.834Z,7.44
2022-11-27T02:45:33.893Z,7.45
2022-11-27T02:48:31.236Z,7.46
2022-11-27T02:51:22.170Z,7.46
2022-11-27T02:54:12.929Z,7.45
2022-11-27T02:57:03.703Z,7.37
2022-11-27T02:59:52.602Z,7.42
2022-11-27T03:02:44.359Z,7.40
2022-11-27T03:05:39.010Z,7.42
2022-11-27T03:08:33.914Z,7.42
2022-11-27T03:11:21.021Z,7.45
2022-11-27T03:14:11.317Z,7.47
2022-11-27T03:17:06.734Z,7.47
2022-11-27T03:19:55.895Z,7.43
2022-11-27T03:22:44.851Z,7.39
2022-11-27T03:25:31.853Z,7.33
2022-11-27T03:28:19.242Z,7.32
2022-11-27T03:31:06.439Z,7.29
2022-11-27T03:33:55.157Z,7.26
2022-11-27T03:36:41.681Z,7.24
2022-11-27T03:39:31.584Z,7.17
2022-11-27T03:42:25.026Z,7.14
2022-11-27T03:45:25.186Z,7.14
2022-11-27T03:48:24.021Z,7.11
2022-11-27T03:51:22.772Z,7.11
2022-11-27T03:54:20.489Z,7.07
2022-11-27T03:57:16.950Z,7.02
2022-11-27T04:00:08.117Z,6.95
2022-11-27T04:02:55.267Z,6.93
2022-11-27T04:05:42.277Z,6.93
2022-11-27T04:08:29.819Z,6.94
2022-11-27T04:11:17.246Z,6.93
2022-11-27T04:14:05.983Z,6.89
2022-11-27T04:16:52.802Z,6.86
2022-11-27T04:19:40.211Z,6.86
2022-11-27T04:22:27.159Z,6.87
2022-11-27T04:25:14.073Z,6.87
2022-11-27T04:28:00.736Z,6.86
2022-11-27T04:30:54.748Z,6.84
2022-11-27T04:33:41.694Z,6.81
2022-11-27T04:36:29.118Z,6.77
2022-11-27T04:39:16.106Z,6.80
2022-11-27T04:42:03.323Z,6.80
2022-11-27T04:44:50.755Z,6.78
2022-11-27T04:47:38.888Z,6.76
2022-11-27T04:50:26.010Z,6.71
2022-11-27T04:53:13.125Z,6.72
2022-11-27T04:55:59.933Z,6.72
2022-11-27T04:58:47.365Z,6.72
2022-11-27T05:01:34.555Z,6.71
2022-11-27T05:04:23.819Z,6.64
2022-11-27T05:07:10.682Z,6.66
2022-11-27T05:09:57.675Z,6.61
2022-11-27T05:12:44.552Z,6.59
2022-11-27T05:15:31.469Z,6.57
2022-11-27T05:18:18.290Z,6.58
2022-11-27T05:21:08.899Z,6.60
2022-11-27T05:23:55.819Z,6.59
2022-11-27T05:26:43.586Z,6.58
2022-11-27T05:29:30.867Z,6.54
2022-11-27T05:32:18.211Z,6.52
2022-11-27T05:35:05.507Z,6.52
2022-11-27T05:37:54.049Z,6.53
2022-11-27T05:40:41.068Z,6.53
2022-11-27T05:43:28.146Z,6.53
2022-11-27T05:46:17.913Z,6.52
2022-11-27T05:49:06.256Z,6.48
2022-11-27T05:51:52.811Z,6.45
2022-11-27T05:54:41.313Z,6.46
2022-11-27T05:57:28.478Z,6.47
2022-11-27T06:00:16.595Z,6.45
2022-11-27T06:03:04.204Z,6.44
2022-11-27T06:05:50.910Z,6.38
2022-11-27T06:08:38.615Z,6.37
2022-11-27T06:11:26.975Z,6.39
2022-11-27T06:14:14.471Z,6.39
2022-11-27T06:17:01.298Z,6.41
2022-11-27T06:19:48.614Z,6.40
2022-11-27T06:22:35.250Z,6.37
2022-11-27T06:25:22.692Z,6.31
2022-11-27T06:28:10.863Z,6.29
2022-11-27T06:33:45.445Z,6.29
2022-11-27T06:36:34.300Z,6.31
2022-11-27T06:39:21.050Z,6.28
2022-11-27T06:42:08.143Z,6.27
2022-11-27T06:44:56.579Z,6.23
2022-11-27T06:47:43.803Z,6.27
2022-11-27T06:50:30.579Z,6.25
2022-11-27T06:53:19.527Z,6.30
2022-11-27T06:56:08.581Z,6.33
2022-11-27T06:58:57.692Z,6.32
2022-11-27T07:01:45.801Z,6.33
2022-11-27T07:04:32.994Z,6.37
2022-11-27T07:07:20.052Z,6.38
2022-11-27T07:10:08.730Z,6.42
2022-11-27T07:12:55.574Z,6.44
2022-11-27T07:15:43.453Z,6.50
2022-11-27T07:18:32.365Z,6.53
2022-11-27T07:21:20.090Z,6.60
2022-11-27T07:24:07.974Z,6.70
2022-11-27T07:26:55.610Z,6.78
2022-11-27T07:29:42.836Z,6.86
2022-11-27T07:32:30.180Z,6.93
2022-11-27T07:35:18.871Z,6.97
2022-11-27T07:38:06.346Z,6.97
2022-11-27T07:40:53.982Z,6.99
2022-11-27T07:43:42.896Z,7.02
2022-11-27T07:46:30.918Z,7.06
2022-11-27T07:49:18.662Z,7.11
2022-11-27T07:52:07.540Z,7.19
2022-11-27T07:54:55.343Z,7.30
2022-11-27T07:57:42.955Z,7.38
2022-11-27T08:00:30.281Z,7.43
2022-11-27T08:03:17.593Z,7.53
2022-11-27T08:06:04.407Z,7.60
2022-11-27T08:08:54.908Z,7.62
2022-11-27T08:11:41.816Z,7.62
2022-11-27T08:14:29.253Z,7.67
2022-11-27T08:17:16.055Z,7.73
2022-11-27T08:20:04.328Z,7.81
2022-11-27T08:22:51.370Z,7.86
2022-11-27T08:25:40.113Z,7.97
2022-11-27T08:28:27.025Z,8.03
2022-11-27T08:31:15.598Z,8.06
2022-11-27T08:34:02.466Z,8.12
2022-11-27T08:36:49.655Z,8.20
2022-11-27T08:39:36.801Z,8.28
2022-11-27T08:42:25.630Z,8.34
2022-11-27T08:45:12.983Z,8.41
2022-11-27T08:48:00.439Z,8.58
2022-11-27T08:50:47.468Z,8.71
2022-11-27T08:53:36.006Z,8.78
2022-11-27T08:56:24.245Z,8.76
2022-11-27T08:59:13.314Z,8.81
2022-11-27T09:02:00.651Z,8.89
2022-11-27T09:04:47.966Z,8.93
2022-11-27T09:07:34.848Z,9.05
2022-11-27T09:10:22.726Z,9.09
2022-11-27T09:13:09.604Z,9.17
2022-11-27T09:15:58.720Z,9.24
2022-11-27T09:18:46.577Z,9.34
2022-11-27T09:21:33.787Z,9.45
2022-11-27T09:24:20.485Z,9.59
2022-11-27T09:27:08.192Z,9.72
2022-11-27T09:29:55.316Z,9.78
2022-11-27T09:32:44.083Z,9.94
2022-11-27T09:35:31.043Z,10.00
2022-11-27T09:38:18.605Z,10.15
2022-11-27T09:41:14.820Z,10.35
2022-11-27T09:44:07.618Z,10.53
2022-11-27T09:46:56.516Z,10.63
2022-11-27T09:49:50.623Z,10.61
2022-11-27T09:52:42.501Z,10.70
2022-11-27T09:55:33.726Z,10.78
2022-11-27T09:58:27.064Z,10.96
2022-11-27T10:01:16.329Z,11.09
2022-11-27T10:04:03.529Z,11.22
2022-11-27T10:07:10.756Z,11.35
2022-11-27T10:10:09.986Z,11.35
2022-11-27T10:13:05.701Z,11.45
2022-11-27T10:15:57.602Z,11.42
2022-11-27T10:18:51.542Z,11.48
2022-11-27T10:21:47.830Z,11.61
2022-11-27T10:24:47.631Z,11.72
2022-11-27T10:27:44.878Z,11.90
2022-11-27T10:30:34.050Z,12.08
2022-11-27T10:33:26.986Z,12.09
2022-11-27T10:36:16.726Z,12.22
2022-11-27T10:39:07.917Z,12.34
2022-11-27T10:42:02.719Z,12.51
2022-11-27T10:44:54.729Z,12.56
2022-11-27T10:47:44.140Z,12.63
2022-11-27T10:50:31.443Z,12.75
2022-11-27T10:53:27.026Z,12.92
2022-11-27T10:56:48.745Z,12.97
2022-11-27T10:59:42.607Z,13.02
2022-11-27T11:02:32.941Z,13.01
2022-11-27T11:05:40.982Z,12.98
2022-11-27T11:08:32.625Z,12.90
2022-11-27T11:11:27.025Z,12.88
2022-11-27T11:14:19.392Z,12.90
2022-11-27T11:17:18.503Z,12.91
2022-11-27T11:20:16.418Z,12.95
2022-11-27T11:23:03.342Z,12.97
2022-11-27T11:25:53.326Z,13.12
2022-11-27T11:28:50.046Z,13.28
2022-11-27T11:31:40.655Z,13.22
2022-11-27T11:34:31.089Z,13.45
2022-11-27T11:37:23.677Z,13.51
2022-11-27T11:40:27.835Z,13.56
2022-11-27T11:43:26.669Z,13.44
2022-11-27T11:46:19.787Z,13.29
2022-11-27T11:49:16.090Z,13.23
2022-11-27T11:52:26.521Z,13.23
2022-11-27T11:55:28.890Z,13.29
2022-11-27T11:58:41.001Z,13.27
2022-11-27T12:02:06.178Z,13.35
2022-11-27T12:05:21.638Z,13.32
2022-11-27T12:08:41.998Z,13.35
2022-11-27T12:11:37.095Z,13.52
2022-11-27T12:14:40.713Z,13.60
2022-11-27T12:17:43.237Z,13.60
2022-11-27T12:20:42.644Z,13.54
2022-11-27T12:23:59.589Z,13.60
2022-11-27T12:26:59.857Z,13.65
2022-11-27T12:30:13.273Z,13.77
2022-11-27T12:33:29.740Z,13.64
2022-11-27T12:36:29.205Z,13.64
2022-11-27T12:39:25.625Z,13.63
2022-11-27T12:42:22.275Z,13.72
2022-11-27T12:45:20.227Z,13.57
2022-11-27T12:48:15.799Z,13.49
2022-11-27T12:51:08.800Z,13.43
2022-11-27T12:54:01.792Z,13.34
2022-11-27T12:56:54.839Z,13.46
2022-11-27T12:59:47.472Z,13.54
2022-11-27T13:02:39.749Z,13.63
2022-11-27T13:05:30.733Z,13.63
2022-11-27T13:08:24.881Z,13.65
2022-11-27T13:11:14.775Z,13.66
2022-11-27T13:14:08.527Z,13.71
2022-11-27T13:16:59.635Z,13.70
2022-11-27T13:19:50.325Z,13.80
2022-11-27T13:22:38.162Z,13.82
2022-11-27T13:25:26.878Z,13.92
2022-11-27T13:28:25.324Z,14.03
2022-11-27T13:31:20.563Z,14.18
2022-11-27T13:34:12.664Z,14.20
2022-11-27T13:37:01.635Z,14.27
2022-11-27T13:39:49.449Z,14.28
2022-11-27T13:42:37.907Z,14.34
2022-11-27T13:45:29.191Z,14.32
2022-11-27T13:48:34.558Z,14.26
2022-11-27T13:51:28.423Z,14.27
2022-11-27T13:54:18.076Z,14.17
2022-11-27T13:57:14.139Z,14.19
2022-11-27T14:00:04.010Z,14.18
2022-11-27T14:03:03.548Z,14.12
2022-11-27T14:05:53.118Z,14.04
2022-11-27T14:08:40.142Z,14.01
2022-11-27T14:11:40.088Z,13.98
2022-11-27T14:14:29.702Z,13.89
2022-11-27T14:17:27.452Z,13.83
2022-11-27T14:20:26.553Z,13.62
2022-11-27T14:23:29.823Z,13.56
2022-11-27T14:26:24.009Z,13.47
2022-11-27T14:29:12.778Z,13.38
2022-11-27T14:32:01.438Z,13.30
2022-11-27T14:34:49.212Z,13.21
2022-11-27T14:37:36.576Z,13.06
2022-11-27T14:40:28.564Z,12.97
2022-11-27T14:43:17.367Z,12.83
2022-11-27T14:46:08.434Z,12.74
2022-11-27T14:48:57.154Z,12.65
2022-11-27T14:51:48.574Z,12.59
2022-11-27T14:54:40.174Z,12.48
2022-11-27T14:57:30.511Z,12.32
2022-11-27T15:00:19.435Z,12.27
2022-11-27T15:03:11.711Z,12.21
2022-11-27T15:06:00.387Z,12.14
2022-11-27T15:09:15.953Z,12.09
2022-11-27T15:12:01.745Z,12.04
2022-11-27T15:14:58.343Z,12.03
2022-11-27T15:17:49.916Z,12.00
2022-11-27T15:20:40.300Z,11.95
2022-11-27T15:23:29.216Z,11.96
2022-11-27T15:26:30.799Z,11.92
2022-11-27T15:29:36.080Z,11.91
2022-11-27T15:32:26.881Z,11.92
2022-11-27T15:35:16.039Z,11.85
2022-11-27T15:38:10.844Z,11.84
2022-11-27T15:41:01.722Z,11.84
2022-11-27T15:43:48.952Z,11.85
2022-11-27T15:46:36.357Z,11.85
2022-11-27T15:49:25.105Z,11.83
2022-11-27T15:52:11.727Z,11.78
2022-11-27T15:54:59.298Z,11.77
2022-11-27T15:57:46.226Z,11.75
2022-11-27T16:00:33.419Z,11.73
2022-11-27T16:03:22.487Z,11.68
2022-11-27T16:06:10.934Z,11.67
2022-11-27T16:08:59.093Z,11.60
2022-11-27T16:11:45.670Z,11.58
2022-11-27T16:14:32.928Z,11.58
2022-11-27T16:17:19.991Z,11.57
2022-11-27T16:20:08.891Z,11.54
2022-11-27T16:22:57.072Z,11.54
2022-11-27T16:25:44.427Z,11.52
2022-11-27T16:28:31.938Z,11.50
2022-11-27T16:31:19.470Z,11.41
2022-11-27T16:34:06.636Z,11.35
2022-11-27T16:36:53.827Z,11.29
2022-11-27T16:39:42.106Z,11.24
2022-11-27T16:42:29.899Z,11.18
2022-11-27T16:45:17.639Z,11.18
2022-11-27T16:48:05.588Z,11.17
2022-11-27T16:51:03.137Z,11.16
2022-11-27T16:53:52.693Z,11.11
2022-11-27T16:56:41.219Z,11.19
2022-11-27T16:59:28.870Z,11.24
2022-11-27T17:02:15.740Z,11.26
2022-11-27T17:05:03.368Z,11.25
2022-11-27T17:07:50.305Z,11.25
2022-11-27T17:10:37.856Z,11.20
2022-11-27T17:13:26.660Z,11.27
2022-11-27T17:16:13.963Z,11.25
2022-11-27T17:19:03.225Z,11.28
2022-11-27T17:21:51.102Z,11.30
2022-11-27T17:24:40.009Z,11.32
2022-11-27T17:27:27.437Z,11.17
2022-11-27T17:30:16.185Z,11.29
2022-11-27T17:33:03.544Z,11.32
2022-11-27T17:35:50.630Z,11.30
2022-11-27T17:38:38.148Z,11.27
2022-11-27T17:41:26.254Z,11.23
2022-11-27T17:44:14.321Z,11.20
2022-11-27T17:47:02.622Z,11.17
2022-11-27T17:49:50.152Z,11.16
2022-11-27T17:52:37.146Z,11.14
2022-11-27T17:55:24.364Z,11.11
2022-11-27T17:58:11.282Z,11.07
2022-11-27T18:00:58.805Z,11.03
2022-11-27T18:03:48.690Z,11.05
2022-11-27T18:06:36.066Z,11.02
2022-11-27T18:09:23.519Z,11.00
2022-11-27T18:12:10.424Z,10.99
2022-11-27T18:15:01.263Z,10.94
2022-11-27T18:17:49.008Z,10.93
2022-11-27T18:20:38.039Z,10.89
2022-11-27T18:23:25.028Z,10.88
2022-11-27T18:26:14.588Z,10.85
2022-11-27T18:29:03.077Z,10.82
2022-11-27T18:31:51.856Z,10.89
2022-11-27T18:34:39.397Z,10.86
2022-11-27T18:37:28.124Z,10.82
2022-11-27T18:40:15.341Z,10.86
2022-11-27T18:43:02.587Z,10.84
2022-11-27T18:45:49.567Z,10.81
2022-11-27T18:48:38.548Z,10.77
2022-11-27T18:51:26.621Z,10.77
2022-11-27T18:54:15.223Z,10.72
2022-11-27T18:57:02.388Z,10.71
2022-11-27T18:59:51.735Z,10.69
2022-11-27T19:02:46.912Z,10.66
2022-11-27T19:05:36.551Z,10.64
2022-11-27T19:08:23.550Z,10.65
2022-11-27T19:11:14.984Z,10.64
2022-11-27T19:14:02.595Z,10.61
2022-11-27T19:16:50.824Z,10.62
2022-11-27T19:19:54.696Z,10.62
2022-11-27T19:22:42.445Z,10.59
2022-11-27T19:25:30.174Z,10.50
2022-11-27T19:28:19.147Z,10.48
2022-11-27T19:31:07.418Z,10.39
2022-11-27T19:33:55.824Z,10.34
2022-11-27T19:36:42.961Z,10.38
2022-11-27T19:39:30.100Z,10.36
2022-11-27T19:42:17.125Z,10.31
2022-11-27T19:45:06.602Z,10.23
2022-11-27T19:47:53.739Z,10.16
2022-11-27T19:50:43.071Z,10.15
2022-11-27T19:53:30.018Z,10.16
2022-11-27T19:56:17.798Z,10.11
2022-11-27T19:59:06.059Z,10.08
2022-11-27T20:01:55.123Z,10.01
2022-11-27T20:04:44.869Z,9.92
2022-11-27T20:07:32.219Z,9.90
2022-11-27T20:10:20.026Z,9.91
2022-11-27T20:13:06.744Z,9.95
2022-11-27T20:15:55.470Z,9.97
2022-11-27T20:18:44.808Z,10.00
2022-11-27T20:21:32.651Z,9.97
2022-11-27T20:24:19.388Z,9.94
2022-11-27T20:27:06.859Z,9.99
2022-11-27T20:29:54.998Z,10.01
2022-11-27T20:32:42.641Z,9.98
2022-11-27T20:35:30.687Z,10.02
2022-11-27T20:38:17.975Z,10.05
2022-11-27T20:41:06.934Z,10.06
2022-11-27T20:43:56.312Z,10.07
2022-11-27T20:46:43.236Z,10.03
2022-11-27T20:49:33.764Z,10.00
2022-11-27T20:52:22.780Z,10.04
2022-11-27T20:55:10.509Z,10.01
2022-11-27T20:57:57.679Z,10.00
2022-11-27T21:00:44.912Z,9.94
2022-11-27T21:03:32.203Z,9.95
2022-11-27T21:06:23.097Z,9.94
2022-11-27T21:09:12.259Z,9.91
2022-11-27T21:11:59.579Z,9.85
2022-11-27T21:14:46.326Z,9.85
2022-11-27T21:17:33.345Z,9.84
2022-11-27T21:20:20.742Z,9.77
2022-11-27T21:23:07.972Z,9.76
2022-11-27T21:25:56.193Z,9.79
2022-11-27T21:28:43.752Z,9.81
2022-11-27T21:31:34.507Z,9.86
2022-11-27T21:34:25.193Z,9.89
2022-11-27T21:37:12.075Z,9.91
2022-11-27T21:39:59.594Z,9.93
2022-11-27T21:42:47.829Z,9.95
2022-11-27T21:45:37.442Z,9.98
2022-11-27T21:48:25.020Z,10.01
2022-11-27T21:51:15.100Z,10.05
2022-11-27T21:54:02.013Z,10.04
2022-11-27T21:56:52.702Z,10.09
2022-11-27T21:59:43.127Z,10.06
2022-11-27T22:02:30.009Z,10.05
2022-11-27T22:05:18.619Z,10.08
2022-11-27T22:08:05.995Z,10.06
2022-11-27T22:10:53.057Z,10.08
2022-11-27T22:13:41.091Z,10.05
2022-11-27T22:16:31.379Z,10.04
2022-11-27T22:19:18.298Z,10.03
2022-11-27T22:22:05.616Z,10.03
2022-11-27T22:24:52.314Z,10.02
2022-11-27T22:27:39.639Z,10.05
2022-11-27T22:30:26.873Z,10.07
2022-11-27T22:33:15.553Z,10.09
2022-11-27T22:36:11.795Z,10.07
2022-11-27T22:39:00.758Z,10.07
2022-11-27T22:41:47.557Z,10.05
2022-11-27T22:44:34.752Z,10.05
2022-11-27T22:47:22.057Z,10.07
2022-11-27T22:50:11.018Z,10.03
2022-11-27T22:52:58.423Z,10.01
2022-11-27T22:55:45.785Z,10.01
2022-11-27T22:58:35.165Z,10.02
2022-11-27T23:01:26.015Z,10.00
2022-11-27T23:04:13.099Z,9.97
2022-11-27T23:07:01.590Z,9.96
2022-11-27T23:09:48.292Z,9.89
2022-11-27T23:12:35.768Z,9.89
2022-11-27T23:15:22.559Z,9.84
2022-11-27T23:18:10.225Z,9.80
2022-11-27T23:20:56.782Z,9.78
2022-11-27T23:23:45.469Z,9.74
2022-11-27T23:26:32.901Z,9.73
2022-11-27T23:29:20.133Z,9.72
2022-11-27T23:32:06.942Z,9.70
2022-11-27T23:34:54.239Z,9.70
2022-11-27T23:37:41.744Z,9.69
2022-11-27T23:40:30.576Z,9.69
2022-11-27T23:43:16.993Z,9.69
2022-11-27T23:46:04.806Z,9.68
2022-11-27T23:48:51.443Z,9.69
2022-11-27T23:51:38.841Z,9.69
2022-11-27T23:54:25.718Z,9.67
2022-11-27T23:57:14.383Z,9.66
